This is the latest recevied weather packets stored in our database for station/object SP6KBU-12. If no packets are shown the sender has not sent any weather packets the latest 1 day(s).
| Time | Temp. | Humidity | Pressure | Rain* | Wind** | Luminosity | Snow |
|---|---|---|---|---|---|---|---|
| 1778035608 | 12.22° C | 69% | 1006.9 hPa | - | - | - | - |
| 1778034708 | 12.22° C | 68% | 1006.8 hPa | - | - | - | - |
| 1778033808 | 12.22° C | 68% | 1007 hPa | - | - | - | - |
| 1778032907 | 12.22° C | 70% | 1007.3 hPa | - | - | - | - |
| 1778032007 | 12.22° C | 71% | 1007.4 hPa | - | - | - | - |
| 1778031108 | 11.67° C | 72% | 1007.9 hPa | - | - | - | - |
| 1778030208 | 11.67° C | 72% | 1008 hPa | - | - | - | - |
| 1778029307 | 12.22° C | 70% | 1007.9 hPa | - | - | - | - |
| 1778028407 | 11.67° C | 69% | 1007.9 hPa | - | - | - | - |
| 1778027507 | 11.67° C | 68% | 1007.7 hPa | - | - | - | - |
| 1778026607 | 11.67° C | 67% | 1007.7 hPa | - | - | - | - |
| 1778023907 | 12.22° C | 65% | 1008 hPa | - | - | - | - |
| 1778022106 | 12.22° C | 65% | 1007.8 hPa | - | - | - | - |
| 1778019407 | 12.22° C | 64% | 1008.2 hPa | - | - | - | - |
| 1778018507 | 12.22° C | 64% | 1008.3 hPa | - | - | - | - |
| 1778014906 | 13.33° C | 63% | 1008.9 hPa | - | - | - | - |
| 1778013106 | 13.33° C | 62% | 1008.9 hPa | - | - | - | - |
| 1778009507 | 14.44° C | 61% | 1008.8 hPa | - | - | - | - |
| 1778008765 | 15° C | 62% | 1008.8 hPa | - | - | - | - |
| 1778008608 | 15° C | 62% | 1008.8 hPa | - | - | - | - |
| 1778006807 | 15.56° C | 59% | 1008.6 hPa | - | - | - | - |
| 1778005907 | 16.11° C | 57% | 1008.7 hPa | - | - | - | - |
| 1778002307 | 18.33° C | 53% | 1008.7 hPa | - | - | - | - |
| 1777999606 | 19.44° C | 50% | 1008.4 hPa | - | - | - | - |
| 1777995104 | 26.67° C | 31% | 1008.3 hPa | - | - | - | - |
* Rain since midnight (hover to see other rain measurements)
** Current wind speed in m/s (hover to see current wind gust speed)